Time;durP1;ratioP1;P1;durP2;ratioP2;P2;SDS_P1;SDS_P2;PMS_P1;PMS_P2;Temp;Humidity;BMP_temperature;BMP_pressure;BME280_temperature;BME280_humidity;BME280_pressure;Samples;Min_cycle;Max_cycle;Signal;HPM_P1;HPM_P2
2021/12/09 04:37:53;;;;;;;14.77;7.03;;;;;;;8.92;61.78;97585.47;6941704;28;20170;-85
2021/12/09 04:41:19;;;;;;;13.43;7.47;;;;;;;8.90;61.51;97591.06;6931656;28;20242;-86
2021/12/09 04:49:16;;;;;;;12.23;7.10;;;;;;;9.08;60.32;97569.56;6654066;29;20303;-87
2021/12/09 04:56:55;;;;;;;16.53;7.33;;;;;;;8.90;61.43;97625.19;6819537;28;20586;-88
2021/12/09 05:00:19;;;;;;;13.30;7.63;;;;;;;9.19;61.26;97626.09;6935473;28;20439;-86
2021/12/09 05:03:45;;;;;;;11.47;7.67;;;;;;;9.13;61.39;97626.16;6935913;28;20274;-86
2021/12/09 05:07:29;;;;;;;16.13;8.30;;;;;;;9.21;61.25;97633.94;6932214;28;20224;-86
2021/12/09 05:24:27;;;;;;;13.87;7.97;;;;;;;9.21;60.88;97680.47;6937731;28;20168;-89
2021/12/09 06:24:06;;;;;;;;;;;;;;;;;;;;;
2021/12/09 06:28:07;;;;;;;14.37;7.97;;;;;;;8.86;61.09;97708.13;6705065;29;20324;-86
2021/12/09 06:40:41;;;;;;;14.10;7.43;;;;;;;9.10;60.43;97701.91;6784753;29;20682;-86
2021/12/09 06:44:50;;;;;;;14.37;8.47;;;;;;;8.65;61.39;97710.38;6811160;29;20244;-88
2021/12/09 06:48:15;;;;;;;12.33;7.47;;;;;;;8.77;61.17;97712.13;6824730;29;20267;-87
2021/12/09 06:59:55;;;;;;;11.10;5.93;;;;;;;8.36;61.14;97692.25;6791883;29;20236;-85
2021/12/09 07:03:23;;;;;;;11.43;6.53;;;;;;;8.64;59.87;97681.88;6807836;29;20748;-87
2021/12/09 07:06:51;;;;;;;12.93;6.90;;;;;;;8.93;59.45;97707.00;6809721;29;20202;-86
2021/12/09 07:10:14;;;;;;;12.73;6.80;;;;;;;8.75;59.85;97713.38;6861914;28;20573;-87
2021/12/09 07:13:35;;;;;;;13.50;7.40;;;;;;;8.46;60.28;97682.66;6946220;28;20593;-89
2021/12/09 07:17:20;;;;;;;13.60;8.10;;;;;;;8.65;60.56;97718.44;6938776;28;20212;-89
2021/12/09 07:20:42;;;;;;;11.23;6.93;;;;;;;8.83;60.76;97719.31;6932852;28;20697;-87
2021/12/09 07:24:12;;;;;;;15.87;7.27;;;;;;;8.93;59.75;97727.72;6931398;28;20224;-85
2021/12/09 07:27:33;;;;;;;67.87;34.10;;;;;;;8.70;59.92;97732.03;6932213;28;20216;-85
2021/12/09 07:30:55;;;;;;;28.90;12.37;;;;;;;9.00;60.95;97725.78;6939282;28;20226;-87
2021/12/09 07:43:08;;;;;;;14.03;9.00;;;;;;;8.67;59.10;97752.09;6813194;29;20230;-88
2021/12/09 07:51:06;;;;;;;14.03;7.90;;;;;;;9.03;60.64;97744.97;6885807;28;20279;-87
2021/12/09 07:58:24;;;;;;;17.43;9.63;;;;;;;8.99;60.59;97748.31;6914690;28;20344;-89
2021/12/09 08:02:12;;;;;;;15.57;9.90;;;;;;;9.26;59.67;97758.59;6962528;28;20231;-89
2021/12/09 08:06:00;;;;;;;15.43;10.43;;;;;;;8.98;59.51;97763.63;6952942;28;20658;-88
2021/12/09 08:09:23;;;;;;;15.67;10.00;;;;;;;8.81;59.62;97747.44;6961979;28;20198;-88
2021/12/09 08:16:33;;;;;;;12.13;9.27;;;;;;;8.78;60.29;97777.47;6959403;28;20211;-89
2021/12/09 08:19:56;;;;;;;15.97;9.53;;;;;;;9.22;59.55;97768.16;6968545;28;20231;-89
2021/12/09 08:23:21;;;;;;;13.67;9.03;;;;;;;9.28;58.93;97761.88;6962668;28;20228;-87
2021/12/09 08:26:47;;;;;;;17.40;10.60;;;;;;;8.48;58.56;97666.31;6964504;28;20214;-90
2021/12/09 08:30:10;;;;;;;15.33;9.73;;;;;;;8.98;60.04;97772.72;6963876;28;20211;-87
2021/12/09 08:37:26;;;;;;;16.73;9.90;;;;;;;8.99;59.84;97773.31;6962074;28;20259;-88
2021/12/09 08:40:49;;;;;;;13.03;9.33;;;;;;;9.02;60.53;97773.94;6947333;28;20223;-89
2021/12/09 08:44:28;;;;;;;10.87;8.20;;;;;;;9.27;59.77;97778.28;6930930;28;20218;-90
2021/12/09 08:47:50;;;;;;;11.57;7.57;;;;;;;8.91;59.65;97755.84;6927427;28;20212;-89
2021/12/09 08:51:20;;;;;;;11.87;7.93;;;;;;;9.13;59.94;97797.44;6932187;28;20227;-89
2021/12/09 08:54:52;;;;;;;11.57;8.50;;;;;;;9.08;59.85;97790.00;6933641;28;20232;-89
2021/12/09 08:58:17;;;;;;;12.17;9.67;;;;;;;9.53;59.20;97799.50;6931752;28;20210;-88
2021/12/09 09:02:04;;;;;;;18.90;11.33;;;;;;;9.08;60.01;97806.13;6946750;28;20237;-88
2021/12/09 09:05:29;;;;;;;17.50;10.80;;;;;;;9.22;60.99;97807.69;6963223;28;20297;-87
2021/12/09 09:08:56;;;;;;;16.17;10.37;;;;;;;9.46;60.23;97810.31;6960919;28;20211;-88
2021/12/09 09:12:18;;;;;;;9.43;8.10;;;;;;;9.58;59.79;97803.16;6959862;28;20227;-86
2021/12/09 09:15:40;;;;;;;11.97;8.10;;;;;;;9.61;60.57;97815.34;6958439;28;20212;-88
2021/12/09 09:19:03;;;;;;;9.13;6.47;;;;;;;9.77;59.22;97812.91;6958759;28;21055;-88
2021/12/09 09:23:16;;;;;;;11.10;5.83;;;;;;;9.63;58.17;97818.66;6959431;28;20231;-87
2021/12/09 09:26:45;;;;;;;8.77;4.90;;;;;;;8.99;57.90;97808.28;6951811;28;20342;-85
2021/12/09 09:30:08;;;;;;;8.43;5.00;;;;;;;9.16;56.67;97781.69;6954421;28;20221;-89
2021/12/09 09:33:31;;;;;;;5.97;4.97;;;;;;;9.17;56.64;97824.47;6949460;28;20238;-86
2021/12/09 09:36:57;;;;;;;7.67;5.60;;;;;;;8.71;57.98;97788.25;6950430;28;20214;-89
2021/12/09 09:40:27;;;;;;;5.77;5.00;;;;;;;8.73;58.74;97822.97;6951230;28;20244;-89
2021/12/09 09:52:22;;;;;;;9.27;5.80;;;;;;;9.05;57.65;97834.28;6965422;28;20219;-87
2021/12/09 10:00:43;;;;;;;11.13;6.10;;;;;;;9.24;56.92;97833.31;6921153;28;20257;-87
2021/12/09 10:04:14;;;;;;;9.97;6.17;;;;;;;9.79;57.02;97843.13;6961167;28;20216;-88
2021/12/09 10:07:40;;;;;;;13.07;8.90;;;;;;;9.77;56.67;97812.09;6962953;28;20220;-87
2021/12/09 10:11:32;;;;;;;11.67;6.30;;;;;;;10.05;56.61;97847.41;6962019;28;20219;-85
2021/12/09 10:32:25;;;;;;;10.03;5.50;;;;;;;10.43;56.07;97840.72;6654361;29;20867;-88
2021/12/09 10:36:45;;;;;;;15.50;10.13;;;;;;;10.22;55.80;97846.56;6666960;29;20216;-87
2021/12/09 10:40:09;;;;;;;37.73;33.83;;;;;;;10.16;55.27;97785.53;6758190;29;20233;-87
2021/12/09 10:43:31;;;;;;;8.73;5.63;;;;;;;10.06;55.58;97841.81;6862342;28;20319;-87
2021/12/09 10:51:58;;;;;;;7.80;6.07;;;;;;;10.14;56.15;97828.03;6874305;28;20232;-87
2021/12/09 10:55:33;;;;;;;7.77;5.17;;;;;;;9.96;56.52;97846.03;6873130;28;20209;-85
2021/12/09 10:58:55;;;;;;;5.47;4.23;;;;;;;9.83;55.05;97809.34;6873581;28;20248;-86
2021/12/09 11:02:54;;;;;;;9.70;5.90;;;;;;;9.72;55.91;97769.69;6876349;28;20225;-89
2021/12/09 11:06:20;;;;;;;7.27;5.37;;;;;;;10.02;55.46;97748.19;6958921;28;20248;-86
2021/12/09 11:09:44;;;;;;;7.77;5.27;;;;;;;10.18;55.93;97769.16;6966111;28;20218;-87
2021/12/09 11:13:08;;;;;;;7.73;5.53;;;;;;;10.72;55.20;97834.50;6962152;28;20223;-87
2021/12/09 11:16:32;;;;;;;15.13;7.03;;;;;;;10.49;55.65;97834.41;6965462;28;20205;-88
2021/12/09 11:19:55;;;;;;;27.03;15.10;;;;;;;10.29;55.74;97803.41;6961911;28;20292;-85
2021/12/09 11:23:29;;;;;;;70.37;26.27;;;;;;;10.51;55.52;97831.50;6962946;28;20230;-89
2021/12/09 11:26:56;;;;;;;40.37;19.47;;;;;;;10.65;56.35;97811.41;6960564;28;20210;-89
2021/12/09 11:30:18;;;;;;;10.83;5.93;;;;;;;10.32;55.03;97762.53;6957609;28;20213;-86
2021/12/09 11:33:44;;;;;;;7.40;5.10;;;;;;;10.19;56.76;97779.69;6957588;28;20215;-89
2021/12/09 11:37:11;;;;;;;8.63;4.80;;;;;;;10.43;56.17;97807.56;6961469;28;20203;-88
2021/12/09 11:40:36;;;;;;;8.57;5.80;;;;;;;10.25;55.96;97797.66;6960288;28;20233;-86
2021/12/09 11:44:18;;;;;;;6.77;5.43;;;;;;;10.19;56.26;97784.25;6958717;28;20357;-89
2021/12/09 11:47:40;;;;;;;40.40;19.07;;;;;;;10.33;56.10;97740.75;6958175;28;20212;-86
2021/12/09 11:51:08;;;;;;;11.23;7.43;;;;;;;10.80;55.91;97780.25;6962204;28;20245;-88
2021/12/09 11:54:30;;;;;;;10.83;7.23;;;;;;;10.87;54.60;97785.56;6953055;28;20210;-86
2021/12/09 11:57:56;;;;;;;8.30;4.70;;;;;;;10.56;55.48;97789.34;6950697;28;20198;-87
2021/12/09 12:12:45;;;;;;;8.93;7.17;;;;;;;10.75;56.10;97795.50;6952705;28;20676;-88
2021/12/09 12:16:41;;;;;;;7.27;4.80;;;;;;;10.33;55.05;97791.13;6950859;28;20208;-87
2021/12/09 12:20:27;;;;;;;8.43;6.00;;;;;;;10.16;54.87;97720.09;6954563;28;20210;-88
2021/12/09 12:24:01;;;;;;;8.53;4.90;;;;;;;10.57;55.65;97792.84;6959114;28;20190;-87
2021/12/09 12:27:48;;;;;;;6.67;3.80;;;;;;;10.69;54.20;97788.31;6953757;28;20195;-88
2021/12/09 12:31:43;;;;;;;6.67;4.10;;;;;;;10.93;53.54;97776.53;6953601;28;20224;-87
2021/12/09 12:47:52;;;;;;;11.47;5.90;;;;;;;10.28;55.61;97786.41;6864584;28;20219;-86
2021/12/09 12:51:20;;;;;;;16.13;11.10;;;;;;;10.45;56.66;97779.31;6959977;28;20275;-86
2021/12/09 12:54:52;;;;;;;19.27;12.67;;;;;;;10.38;57.45;97784.00;6959942;28;20199;-83
2021/12/09 12:58:13;;;;;;;19.27;12.03;;;;;;;9.75;59.22;97771.13;6956416;28;20259;-84
2021/12/09 13:01:37;;;;;;;20.17;12.73;;;;;;;10.01;58.55;97790.47;6957734;28;20233;-85
2021/12/09 13:05:06;;;;;;;14.27;11.70;;;;;;;9.43;58.37;97745.38;6958235;28;20208;-86
2021/12/09 13:08:50;;;;;;;17.93;12.60;;;;;;;9.43;59.56;97775.81;6956658;28;20201;-84
2021/12/09 13:12:37;;;;;;;19.63;12.60;;;;;;;9.41;59.32;97739.41;6932148;28;20225;-86
2021/12/09 13:16:14;;;;;;;14.57;11.13;;;;;;;9.64;57.47;97778.06;6929936;28;20288;-86
2021/12/09 13:19:47;;;;;;;13.13;10.07;;;;;;;9.44;59.31;97804.34;6937546;28;20205;-85
2021/12/09 13:23:20;;;;;;;13.10;10.50;;;;;;;9.39;60.01;97793.44;6956303;28;20601;-86
2021/12/09 13:27:32;;;;;;;11.93;9.30;;;;;;;9.76;58.75;97803.19;6954817;28;20206;-85
2021/12/09 13:31:51;;;;;;;16.13;7.60;;;;;;;9.27;58.00;97807.84;6954421;28;20215;-85
2021/12/09 13:35:22;;;;;;;12.43;7.13;;;;;;;8.77;58.55;97736.31;6956865;28;20209;-85
2021/12/09 13:46:26;;;;;;;12.13;6.27;;;;;;;8.96;57.82;97726.44;6954184;28;20278;-86
2021/12/09 13:49:55;;;;;;;14.70;7.37;;;;;;;9.63;57.40;97811.41;6954336;28;20194;-86
2021/12/09 13:57:01;;;;;;;15.57;6.13;;;;;;;9.66;56.49;97792.13;6955626;28;20183;-85
2021/12/09 14:00:40;;;;;;;12.87;6.50;;;;;;;9.44;56.77;97806.22;6955210;28;20210;-87
2021/12/09 14:04:21;;;;;;;10.90;6.60;;;;;;;9.58;56.63;97826.56;6956212;28;20205;-85
2021/12/09 14:07:56;;;;;;;15.70;7.00;;;;;;;9.42;56.48;97814.53;6955278;28;20208;-88
2021/12/09 14:11:32;;;;;;;14.40;6.70;;;;;;;9.49;56.46;97834.13;6954114;28;20269;-85
2021/12/09 14:15:03;;;;;;;13.93;6.80;;;;;;;9.57;56.03;97836.50;6954860;28;20208;-85
2021/12/09 14:18:38;;;;;;;13.67;6.43;;;;;;;9.56;56.20;97818.72;6955728;28;20208;-84
2021/12/09 14:22:02;;;;;;;10.70;6.10;;;;;;;9.93;55.29;97849.19;6948163;28;20228;-87
2021/12/09 14:25:25;;;;;;;13.57;6.53;;;;;;;9.90;55.26;97842.38;6948592;28;20692;-85
2021/12/09 14:28:47;;;;;;;12.77;6.47;;;;;;;9.94;55.47;97850.81;6955157;28;20204;-86
2021/12/09 14:32:09;;;;;;;10.83;6.67;;;;;;;9.79;55.04;97850.34;6959784;28;20219;-87
2021/12/09 14:35:34;;;;;;;14.93;6.67;;;;;;;9.95;55.60;97858.69;6954878;28;20206;-87
2021/12/09 14:39:05;;;;;;;11.90;7.00;;;;;;;9.92;55.18;97834.09;6955443;28;20242;-86
2021/12/09 14:42:26;;;;;;;11.03;6.40;;;;;;;9.69;55.15;97861.63;6957362;28;20228;-85
2021/12/09 14:45:58;;;;;;;17.50;7.60;;;;;;;9.95;55.51;97857.84;6959256;28;20193;-86
2021/12/09 14:49:28;;;;;;;15.57;6.60;;;;;;;10.31;53.75;97847.09;6961933;28;20205;-86
2021/12/09 14:52:49;;;;;;;12.57;6.67;;;;;;;9.23;54.90;97780.56;6958605;28;20231;-85
2021/12/09 14:56:28;;;;;;;10.43;5.77;;;;;;;9.90;54.58;97868.47;6952305;28;20217;-85
2021/12/09 14:59:50;;;;;;;9.40;6.07;;;;;;;9.42;56.56;97868.34;6954551;28;20251;-86
2021/12/09 15:03:14;;;;;;;9.87;6.80;;;;;;;9.20;56.53;97860.84;6951269;28;20230;-86
2021/12/09 15:06:39;;;;;;;13.27;8.90;;;;;;;8.73;57.59;97866.75;6952537;28;20230;-86
2021/12/09 15:10:04;;;;;;;16.30;9.30;;;;;;;8.87;57.71;97846.00;6958371;28;20212;-85
2021/12/09 15:13:42;;;;;;;11.93;9.00;;;;;;;9.12;56.93;97855.75;6960711;28;20238;-86
2021/12/09 15:17:14;;;;;;;16.10;8.90;;;;;;;9.60;56.45;97876.44;6959001;28;20226;-86
2021/12/09 15:20:39;;;;;;;14.80;8.13;;;;;;;9.67;55.31;97811.78;6961435;28;20282;-86
2021/12/09 15:24:54;;;;;;;13.77;6.87;;;;;;;9.98;54.75;97862.81;6959761;28;20605;-86
2021/12/09 16:16:18;;;;;;;7.13;6.33;;;;;;;8.83;59.31;97866.31;6673988;29;20215;-88
2021/12/09 16:20:10;;;;;;;16.70;8.03;;;;;;;9.05;58.96;97868.44;6891289;28;20211;-86
2021/12/09 16:36:57;;;;;;;15.63;9.17;;;;;;;8.99;58.12;97856.66;6774915;29;20235;-85
2021/12/09 16:49:11;;;;;;;15.97;8.83;;;;;;;9.08;57.32;97867.97;6920007;28;20208;-86
2021/12/09 16:53:15;;;;;;;14.90;6.53;;;;;;;9.15;56.50;97858.00;6927985;28;20225;-87
2021/12/09 16:56:43;;;;;;;10.03;5.67;;;;;;;9.27;56.54;97859.75;6956816;28;20219;-86
2021/12/09 17:00:07;;;;;;;7.97;6.13;;;;;;;9.32;56.35;97873.38;6937421;28;20282;-86
2021/12/09 17:03:29;;;;;;;14.17;6.37;;;;;;;9.12;55.72;97810.03;6971604;28;20312;-86
2021/12/09 17:06:51;;;;;;;10.03;6.40;;;;;;;9.56;55.30;97877.91;6957458;28;20287;-87
2021/12/09 17:10:34;;;;;;;9.13;6.63;;;;;;;9.32;56.32;97872.53;6953692;28;20205;-87
2021/12/09 17:13:57;;;;;;;7.87;6.00;;;;;;;9.38;56.01;97871.66;6916139;28;20278;-88
2021/12/09 17:17:22;;;;;;;10.50;4.80;;;;;;;9.38;55.53;97853.66;6946500;28;20617;-85
2021/12/09 17:25:24;;;;;;;7.30;4.67;;;;;;;9.49;53.91;97863.72;6898686;28;20210;-86
2021/12/09 17:32:24;;;;;;;9.27;4.70;;;;;;;9.48;54.75;97862.06;6948560;28;20250;-86
2021/12/09 17:35:46;;;;;;;8.07;4.17;;;;;;;9.13;54.30;97787.47;6955370;28;20216;-85
2021/12/09 17:39:13;;;;;;;9.07;4.60;;;;;;;9.19;54.72;97826.94;6953201;28;20562;-86
2021/12/09 17:42:35;;;;;;;6.83;3.30;;;;;;;8.84;55.70;97820.38;6956504;28;20309;-86
2021/12/09 17:45:57;;;;;;;5.90;3.40;;;;;;;9.26;54.98;97859.97;6949352;28;20199;-87
2021/12/09 17:49:20;;;;;;;7.90;4.13;;;;;;;9.61;53.55;97856.56;6952995;28;20204;-87
2021/12/09 17:52:45;;;;;;;9.27;4.07;;;;;;;9.73;53.71;97862.00;6950781;28;20220;-88
2021/12/09 18:00:13;;;;;;;7.70;3.50;;;;;;;9.35;53.25;97872.13;6953631;28;20196;-86
2021/12/09 18:08:37;;;;;;;9.00;3.30;;;;;;;9.11;55.60;97881.81;6849638;29;20213;-87
2021/12/09 18:12:26;;;;;;;5.63;3.20;;;;;;;9.13;54.50;97873.53;6841538;29;20229;-87
2021/12/09 18:15:52;;;;;;;7.47;2.90;;;;;;;8.47;56.05;97858.88;6917815;28;20214;-85
2021/12/09 18:19:16;;;;;;;10.17;4.30;;;;;;;8.99;55.58;97861.22;6949956;28;20210;-86
2021/12/09 18:22:37;;;;;;;12.10;4.40;;;;;;;8.71;56.16;97847.38;6957809;28;20260;-86
2021/12/09 18:26:04;;;;;;;9.97;3.80;;;;;;;8.48;56.32;97806.78;6951396;28;20223;-89
2021/12/09 18:29:26;;;;;;;5.70;3.73;;;;;;;8.85;56.77;97865.03;6964800;28;20223;-87
2021/12/09 18:32:48;;;;;;;11.77;4.33;;;;;;;9.50;55.58;97864.53;6963789;28;20230;-85
2021/12/09 18:36:16;;;;;;;6.67;3.23;;;;;;;8.96;54.71;97831.28;6957687;28;20824;-87
2021/12/09 18:39:38;;;;;;;11.13;4.67;;;;;;;9.28;54.95;97844.47;6960175;28;20223;-86
2021/12/09 18:43:02;;;;;;;4.97;3.53;;;;;;;8.99;54.92;97848.59;6959144;28;20228;-86
2021/12/09 18:46:24;;;;;;;9.03;3.33;;;;;;;8.85;56.03;97837.34;6959041;28;20213;-84
2021/12/09 18:49:46;;;;;;;3.67;2.83;;;;;;;9.38;55.18;97853.66;6947437;28;20216;-86
2021/12/09 18:53:10;;;;;;;5.47;2.87;;;;;;;8.87;55.27;97852.22;6947490;28;20213;-86
2021/12/09 18:56:32;;;;;;;8.63;3.37;;;;;;;9.22;55.48;97864.16;6947645;28;20202;-86
2021/12/09 18:59:58;;;;;;;7.50;2.93;;;;;;;8.92;54.28;97843.50;6961183;28;20208;-86
2021/12/09 19:03:20;;;;;;;11.93;3.37;;;;;;;8.75;55.43;97824.41;6961626;28;20233;-88
2021/12/09 19:06:43;;;;;;;11.37;3.93;;;;;;;8.28;56.56;97757.75;6954659;28;20212;-86
2021/12/09 19:10:09;;;;;;;8.03;4.40;;;;;;;9.57;54.67;97844.56;6947910;28;20729;-87
2021/12/09 19:13:36;;;;;;;10.03;3.23;;;;;;;9.35;54.66;97813.78;6958552;28;20224;-84
2021/12/09 19:17:03;;;;;;;8.47;3.57;;;;;;;9.05;54.55;97846.91;6957326;28;20264;-83
2021/12/09 19:20:27;;;;;;;5.27;3.30;;;;;;;8.97;54.70;97811.41;6960959;28;20208;-86
2021/12/09 19:24:04;;;;;;;10.60;3.57;;;;;;;9.02;55.69;97834.72;6960152;28;20224;-86
2021/12/09 19:27:26;;;;;;;10.07;3.90;;;;;;;9.34;55.07;97839.00;6952418;28;20201;-84
2021/12/09 19:30:47;;;;;;;9.47;3.83;;;;;;;8.66;54.92;97766.56;6952217;28;20231;-84
2021/12/09 19:34:11;;;;;;;7.37;3.73;;;;;;;9.21;54.89;97825.69;6953021;28;20209;-82
2021/12/09 19:37:33;;;;;;;9.30;4.20;;;;;;;9.13;54.49;97803.63;6959510;28;20213;-84
2021/12/09 19:40:56;;;;;;;10.63;3.60;;;;;;;8.87;55.37;97841.47;6957646;28;20237;-87
2021/12/09 19:44:18;;;;;;;8.17;3.60;;;;;;;8.93;54.61;97841.41;6950285;28;20215;-86
2021/12/09 19:47:41;;;;;;;8.33;4.40;;;;;;;9.23;54.46;97831.69;6953916;28;20203;-86
2021/12/09 19:51:05;;;;;;;6.30;3.70;;;;;;;9.20;53.48;97828.56;6955484;28;20317;-84
2021/12/09 19:54:27;;;;;;;4.97;3.30;;;;;;;9.19;54.57;97837.69;6956428;28;20231;-85
2021/12/09 19:57:50;;;;;;;7.17;3.87;;;;;;;8.91;54.77;97755.84;6957845;28;20205;-84
2021/12/09 20:01:12;;;;;;;10.63;4.03;;;;;;;9.19;53.70;97818.88;6960534;28;20225;-86
2021/12/09 20:04:34;;;;;;;7.27;4.20;;;;;;;9.30;54.93;97821.69;6956431;28;20594;-84
2021/12/09 20:07:58;;;;;;;8.57;3.80;;;;;;;8.80;54.07;97767.31;6951577;28;20610;-85
2021/12/09 20:11:20;;;;;;;6.30;3.67;;;;;;;9.55;53.31;97806.31;6954041;28;20232;-86
2021/12/09 20:14:42;;;;;;;6.60;4.50;;;;;;;8.67;54.25;97797.78;6952033;28;20238;-82
2021/12/09 20:18:04;;;;;;;5.97;4.20;;;;;;;9.42;53.47;97816.38;6941289;28;20211;-86
2021/12/09 20:21:27;;;;;;;6.57;3.53;;;;;;;9.17;53.09;97796.75;6960665;28;20246;-88
2021/12/09 20:24:50;;;;;;;8.77;4.10;;;;;;;9.47;53.48;97820.06;6962864;28;20228;-86
2021/12/09 20:28:12;;;;;;;18.87;8.20;;;;;;;9.26;52.94;97738.94;6962093;28;20203;-85
2021/12/09 20:31:34;;;;;;;12.03;5.33;;;;;;;9.38;53.44;97826.75;6956462;28;20227;-87
2021/12/09 20:34:57;;;;;;;5.50;3.33;;;;;;;9.03;54.03;97804.13;6958476;28;20215;-87
2021/12/09 20:38:19;;;;;;;6.70;3.67;;;;;;;9.00;54.83;97798.34;6959896;28;20211;-83
2021/12/09 20:41:42;;;;;;;9.80;4.07;;;;;;;9.10;55.38;97809.44;6957066;28;20232;-84
2021/12/09 20:45:07;;;;;;;11.13;3.30;;;;;;;8.30;56.65;97814.75;6959628;28;20204;-87
2021/12/09 20:48:33;;;;;;;4.00;3.30;;;;;;;8.09;57.27;97749.78;6957521;28;20224;-86
2021/12/09 21:57:21;;;;;;;8.47;3.87;;;;;;;8.09;58.98;97737.19;6804341;29;20220;-85
